Portada
METAR-TAF:

METAR-TAF

Aeropuertos :

Aeropuerto Internacional de Auckland

Auckland, Nueva Zelanda

latitud: 37-01S, longitud: 174-48E, altitud: 7 m

Observación

El informe se hizo hace 35 minutos, a las 09:00 UTC
Viento 9 kt del sur
Temperatura 15°C
Humedad 77%
Presión 1020 hPa
Visibilidad 10 km o más

METAR: NZAA 280900Z AUTO 19009KT 9999 NCD 15/11 Q1020 NOSIG

Hora: 22:35 (09:35 UTC)

Pronóstico

El informe se hizo hace 4 horas y 35 minutos, a las 05:00 UTC
Pronóstico válido del 28 a las 06 UTC al 29 a las 06 UTC
Viento 15 kt del suroeste
Visibilidad 10 km o más
Nubes dispersas a una altura de 3000 ft
Evolucionando progresivamente
del 28 a las 12 UTC al 28 a las 14 UTC
Viento 5 kt del sur-suroeste

TAF: NZAA 280500Z 2806/2906 22015KT 9999 SCT030 BECMG 2812/2814 20005KT

Observaciones y pronósticos meteorológicos de más de 4000 aeropuertos (mensajes METAR y TAF).

Los puntos amarillos y rojos representan las estaciones disponibles.

Ponga el ratón en el punto deseado para ver el nombre de la estación.

Haga clic para ver las observaciones y los pronósticos meteorológicos.

Para cambiar el mapa : haga clic en los botones verdes con una cruz de color negro para hacer un zoom, en el botón verde con un guión para alejar o en las flechas verdes para mapas adyacentes.


METAR-TAF: